Time;durP1;ratioP1;P1;durP2;ratioP2;P2;SDS_P1;SDS_P2;PMS_P1;PMS_P2;Temp;Humidity;BMP_temperature;BMP_pressure;BME280_temperature;BME280_humidity;BME280_pressure;Samples;Min_cycle;Max_cycle;Signal;HPM_P1;HPM_P2
2023/09/03 00:01:56;;;;;;;2.22;1.13;;;19.70;99.90;;;;;;4877910;29;20116;-62
2023/09/03 00:04:22;;;;;;;2.92;1.15;;;19.70;99.90;;;;;;4878391;29;20036;-62
2023/09/03 00:06:47;;;;;;;1.83;1.13;;;19.70;99.90;;;;;;4878412;29;20033;-62
2023/09/03 00:09:13;;;;;;;1.90;1.15;;;19.60;99.90;;;;;;4877924;29;20048;-62
2023/09/03 00:11:39;;;;;;;2.90;0.88;;;19.60;99.90;;;;;;4876099;29;20112;-63
2023/09/03 00:14:05;;;;;;;1.88;1.00;;;19.60;99.90;;;;;;4879142;29;20037;-62
2023/09/03 00:16:30;;;;;;;4.82;1.30;;;19.60;99.90;;;;;;4860135;29;20468;-62
2023/09/03 00:18:56;;;;;;;0.98;0.75;;;19.60;99.90;;;;;;4861204;29;20114;-63
2023/09/03 00:21:22;;;;;;;2.70;0.85;;;19.50;99.90;;;;;;4869472;29;20040;-64
2023/09/03 00:23:50;;;;;;;1.98;1.20;;;19.50;99.90;;;;;;4865199;29;20041;-63
2023/09/03 00:26:19;;;;;;;1.58;0.82;;;19.50;99.90;;;;;;4884985;29;20036;-63
2023/09/03 00:28:45;;;;;;;2.15;0.85;;;19.30;99.90;;;;;;4876467;29;20060;-63
2023/09/03 00:31:10;;;;;;;1.80;1.02;;;19.30;99.90;;;;;;4876990;29;20067;-63
2023/09/03 00:33:37;;;;;;;2.03;0.77;;;19.10;99.90;;;;;;4877243;29;20037;-63
2023/09/03 00:36:06;;;;;;;4.55;1.50;;;19.00;99.90;;;;;;4878013;29;20029;-63
2023/09/03 00:38:32;;;;;;;2.70;1.08;;;19.00;99.90;;;;;;4875866;29;20093;-64
2023/09/03 00:40:58;;;;;;;5.45;1.15;;;18.80;99.90;;;;;;4877449;29;20029;-63
2023/09/03 00:43:24;;;;;;;1.63;0.88;;;18.80;99.90;;;;;;4875724;29;20135;-63
2023/09/03 00:45:51;;;;;;;12.18;1.42;;;18.80;99.90;;;;;;4877853;29;20040;-63
2023/09/03 00:48:23;;;;;;;1.70;0.63;;;18.80;99.90;;;;;;4875562;29;20390;-63
2023/09/03 00:50:51;;;;;;;2.28;1.00;;;18.70;99.90;;;;;;4860403;29;20025;-64
2023/09/03 00:53:18;;;;;;;2.60;1.30;;;18.60;99.90;;;;;;4864502;29;20563;-63
2023/09/03 00:55:43;;;;;;;2.78;1.30;;;18.50;99.90;;;;;;4861194;29;20441;-63
2023/09/03 00:58:10;;;;;;;1.95;1.02;;;18.50;99.90;;;;;;4884321;29;20061;-62
2023/09/03 01:00:36;;;;;;;4.57;1.63;;;18.60;99.90;;;;;;4882146;29;20071;-63
2023/09/03 01:03:03;;;;;;;3.95;1.42;;;18.50;99.90;;;;;;4887076;29;20100;-63
2023/09/03 01:05:29;;;;;;;2.33;1.15;;;18.60;99.90;;;;;;4856238;29;20052;-63
2023/09/03 01:07:58;;;;;;;2.72;1.40;;;18.50;99.90;;;;;;4875834;29;20450;-62
2023/09/03 01:10:37;;;;;;;4.15;1.83;;;18.60;99.90;;;;;;4871396;29;20022;-63
2023/09/03 01:13:26;;;;;;;2.67;1.25;;;18.50;99.90;;;;;;4860666;29;20026;-64
2023/09/03 01:15:56;;;;;;;5.32;1.25;;;18.50;99.90;;;;;;4860036;29;20068;-62
2023/09/03 01:18:26;;;;;;;3.60;1.23;;;18.50;99.90;;;;;;4875758;29;20032;-63
2023/09/03 01:21:35;;;;;;;4.78;1.42;;;18.50;99.90;;;;;;4874270;29;20061;-62
2023/09/03 01:24:24;;;;;;;1.77;1.10;;;18.50;99.90;;;;;;4874428;29;20049;-62
2023/09/03 01:26:56;;;;;;;2.50;1.30;;;18.40;99.90;;;;;;4857450;29;20041;-63
2023/09/03 01:29:24;;;;;;;2.58;1.42;;;18.50;99.90;;;;;;4877503;29;20037;-63
2023/09/03 01:31:50;;;;;;;2.22;1.30;;;18.40;99.90;;;;;;4859420;29;20036;-62
2023/09/03 01:34:17;;;;;;;2.85;1.40;;;18.40;99.90;;;;;;4876315;29;20060;-62
2023/09/03 01:36:44;;;;;;;2.38;1.20;;;18.40;99.90;;;;;;4874975;29;20461;-61
2023/09/03 01:39:11;;;;;;;3.15;1.52;;;18.30;99.90;;;;;;4876507;29;20241;-61
2023/09/03 01:41:38;;;;;;;5.72;1.67;;;18.40;99.90;;;;;;4875173;29;20501;-62
2023/09/03 01:44:08;;;;;;;2.40;1.13;;;18.40;99.90;;;;;;4863614;29;20060;-62
2023/09/03 01:47:03;;;;;;;2.15;1.13;;;18.40;99.90;;;;;;4878909;29;20498;-62
2023/09/03 01:50:06;;;;;;;4.57;1.30;;;18.40;99.90;;;;;;4859730;29;20072;-62
2023/09/03 01:52:46;;;;;;;2.58;1.30;;;18.40;99.90;;;;;;4878594;29;20040;-62
2023/09/03 01:55:14;;;;;;;7.47;1.33;;;18.40;99.90;;;;;;4865453;29;20044;-62
2023/09/03 01:57:47;;;;;;;3.17;1.75;;;18.40;99.90;;;;;;4860572;29;20032;-62
2023/09/03 02:00:17;;;;;;;2.42;1.20;;;18.40;99.90;;;;;;4879736;29;20021;-61
2023/09/03 02:02:47;;;;;;;1.90;1.15;;;18.40;99.90;;;;;;4879781;29;20485;-62
2023/09/03 02:05:14;;;;;;;3.10;1.90;;;18.40;99.90;;;;;;4879595;29;20165;-62
2023/09/03 02:07:41;;;;;;;2.80;1.48;;;18.40;99.90;;;;;;4878736;29;20033;-62
2023/09/03 02:10:07;;;;;;;2.53;1.17;;;18.40;99.90;;;;;;4880285;29;20033;-62
2023/09/03 02:12:33;;;;;;;4.85;1.40;;;18.40;99.90;;;;;;4878365;29;20036;-62
2023/09/03 02:14:59;;;;;;;6.00;1.65;;;18.50;99.90;;;;;;4879124;29;20044;-62
2023/09/03 02:17:26;;;;;;;1.90;1.10;;;18.50;99.90;;;;;;4879213;29;20044;-62
2023/09/03 02:19:54;;;;;;;2.22;1.25;;;18.50;99.90;;;;;;4880167;29;20185;-62
2023/09/03 02:22:20;;;;;;;1.38;1.10;;;18.40;99.90;;;;;;4878738;29;20030;-62
2023/09/03 02:24:46;;;;;;;7.38;1.80;;;18.50;99.90;;;;;;4880449;29;20486;-62
2023/09/03 02:27:12;;;;;;;3.45;1.40;;;18.50;99.90;;;;;;4878184;29;20177;-62
2023/09/03 02:29:39;;;;;;;3.10;1.77;;;18.50;99.90;;;;;;4879921;29;20453;-62
2023/09/03 02:32:08;;;;;;;2.00;1.23;;;18.40;99.90;;;;;;4879089;29;20104;-62
2023/09/03 02:34:37;;;;;;;2.50;1.35;;;18.40;99.90;;;;;;4880208;29;20021;-62
2023/09/03 02:37:03;;;;;;;2.22;1.40;;;18.50;99.90;;;;;;4879006;29;20415;-62
2023/09/03 02:39:29;;;;;;;2.03;1.35;;;18.60;99.90;;;;;;4879713;29;20394;-61
2023/09/03 02:41:57;;;;;;;3.88;1.75;;;18.60;99.90;;;;;;4879133;29;20041;-62
2023/09/03 02:44:23;;;;;;;5.13;1.70;;;18.60;99.90;;;;;;4879869;29;20033;-62
2023/09/03 02:46:49;;;;;;;5.47;1.63;;;18.60;99.90;;;;;;4878122;29;20480;-62
2023/09/03 02:49:14;;;;;;;4.50;1.83;;;18.50;99.90;;;;;;4879734;29;20032;-61
2023/09/03 02:51:41;;;;;;;2.85;1.52;;;18.50;99.90;;;;;;4879070;29;20478;-61
2023/09/03 02:54:06;;;;;;;10.73;2.10;;;18.60;99.90;;;;;;4879172;29;20029;-62
2023/09/03 02:56:33;;;;;;;7.25;2.60;;;18.60;99.90;;;;;;4878785;29;20039;-62
2023/09/03 02:58:59;;;;;;;3.15;1.85;;;18.70;99.90;;;;;;4879384;29;20052;-61
2023/09/03 03:01:25;;;;;;;5.18;2.33;;;18.70;99.90;;;;;;4878480;29;20477;-61
2023/09/03 03:03:51;;;;;;;9.57;2.33;;;18.70;99.90;;;;;;4879387;29;20088;-62
2023/09/03 03:06:16;;;;;;;3.15;1.90;;;18.60;99.90;;;;;;4878225;29;20067;-61
2023/09/03 03:08:42;;;;;;;11.30;2.45;;;18.70;99.90;;;;;;4879084;29;20489;-61
2023/09/03 03:11:11;;;;;;;5.95;2.20;;;18.70;99.90;;;;;;4878509;29;20029;-61
2023/09/03 03:13:45;;;;;;;2.60;1.45;;;18.80;99.90;;;;;;4877894;29;20039;-61
2023/09/03 03:16:13;;;;;;;5.22;2.78;;;18.70;99.90;;;;;;4859658;29;20481;-62
2023/09/03 03:18:45;;;;;;;7.90;1.77;;;18.70;99.90;;;;;;4878896;29;20442;-60
2023/09/03 03:21:18;;;;;;;5.60;2.35;;;18.60;99.90;;;;;;4869275;29;20068;-62
2023/09/03 03:23:50;;;;;;;3.97;1.80;;;18.50;99.90;;;;;;4862645;29;20462;-62
2023/09/03 03:26:16;;;;;;;4.22;1.80;;;18.50;99.90;;;;;;4863452;29;20061;-62
2023/09/03 03:28:42;;;;;;;4.60;2.00;;;18.50;99.90;;;;;;4866613;29;20089;-62
2023/09/03 03:31:19;;;;;;;3.97;2.08;;;18.50;99.90;;;;;;4876826;29;20029;-62
2023/09/03 03:33:47;;;;;;;5.00;2.03;;;18.50;99.90;;;;;;4872904;29;20048;-62
2023/09/03 03:36:16;;;;;;;3.95;1.83;;;18.50;99.90;;;;;;4858578;29;20506;-63
2023/09/03 03:38:42;;;;;;;4.53;2.15;;;18.40;99.90;;;;;;4875445;29;20052;-62
2023/09/03 03:41:19;;;;;;;2.90;1.73;;;18.50;99.90;;;;;;4877320;29;20546;-62
2023/09/03 03:43:50;;;;;;;6.22;2.10;;;18.50;99.90;;;;;;4878614;29;20072;-62
2023/09/03 03:46:19;;;;;;;6.47;2.13;;;18.50;99.90;;;;;;4877748;29;20496;-62
2023/09/03 03:48:46;;;;;;;10.25;2.40;;;18.50;99.90;;;;;;4843749;29;20030;-62
2023/09/03 03:51:13;;;;;;;2.92;1.42;;;18.40;99.90;;;;;;4877670;29;20040;-62
2023/09/03 03:53:39;;;;;;;6.57;1.77;;;18.50;99.90;;;;;;4878366;29;20036;-63
2023/09/03 03:56:10;;;;;;;3.92;1.92;;;18.40;99.90;;;;;;4875921;29;20025;-62
2023/09/03 03:58:40;;;;;;;3.00;1.63;;;18.50;99.90;;;;;;4878372;29;20037;-63
2023/09/03 04:01:16;;;;;;;4.40;2.03;;;18.50;99.90;;;;;;4852927;29;20080;-62
2023/09/03 04:03:43;;;;;;;4.97;1.80;;;18.50;99.90;;;;;;4878115;29;20371;-62
2023/09/03 04:06:09;;;;;;;3.30;1.83;;;18.50;99.90;;;;;;4877067;29;20025;-62
2023/09/03 04:08:38;;;;;;;4.28;1.73;;;18.50;99.90;;;;;;4878031;29;20045;-63
2023/09/03 04:11:18;;;;;;;4.00;2.03;;;18.50;99.90;;;;;;4860205;29;20033;-62
2023/09/03 04:13:44;;;;;;;7.68;2.38;;;18.40;99.90;;;;;;4876878;29;20033;-62
2023/09/03 04:16:16;;;;;;;7.90;1.88;;;18.30;99.90;;;;;;4877627;29;20101;-62
2023/09/03 04:18:44;;;;;;;3.85;1.75;;;18.30;99.90;;;;;;4877904;29;20036;-63
2023/09/03 04:21:10;;;;;;;5.00;2.25;;;18.20;99.90;;;;;;4876756;29;20032;-63
2023/09/03 04:23:36;;;;;;;8.35;1.85;;;18.20;99.90;;;;;;4876655;29;20091;-62
2023/09/03 04:26:03;;;;;;;4.75;1.83;;;18.10;99.90;;;;;;4875313;29;20037;-63
2023/09/03 04:28:29;;;;;;;4.20;2.20;;;18.10;99.90;;;;;;4876429;29;20037;-62
2023/09/03 04:31:08;;;;;;;5.20;2.00;;;18.00;99.90;;;;;;4859874;29;20044;-63
2023/09/03 04:33:38;;;;;;;9.10;2.22;;;17.90;99.90;;;;;;4877896;29;20060;-63
2023/09/03 04:36:04;;;;;;;5.13;2.20;;;18.00;99.90;;;;;;4875487;29;20375;-62
2023/09/03 04:38:31;;;;;;;6.00;1.83;;;18.00;99.90;;;;;;4877757;29;20041;-62
2023/09/03 04:40:57;;;;;;;5.85;1.88;;;17.90;99.90;;;;;;4874213;29;20402;-62
2023/09/03 04:43:23;;;;;;;5.50;2.13;;;17.90;99.90;;;;;;4877598;29;20041;-63
2023/09/03 04:45:52;;;;;;;4.93;2.28;;;17.90;99.90;;;;;;4876936;29;20029;-62
2023/09/03 04:48:19;;;;;;;3.92;1.98;;;17.90;99.90;;;;;;4877635;29;20081;-62
2023/09/03 04:50:45;;;;;;;13.77;2.83;;;17.90;99.90;;;;;;4876745;29;20470;-62
2023/09/03 04:53:12;;;;;;;5.60;1.70;;;17.80;99.90;;;;;;4876956;29;20607;-61
2023/09/03 04:55:39;;;;;;;3.17;1.65;;;17.80;99.90;;;;;;4877426;29;20040;-61
2023/09/03 04:58:05;;;;;;;3.03;1.85;;;17.90;99.90;;;;;;4860666;29;20033;-64
2023/09/03 05:00:32;;;;;;;5.10;2.20;;;17.70;99.90;;;;;;4876582;29;20044;-61
2023/09/03 05:02:58;;;;;;;3.80;2.17;;;17.70;99.90;;;;;;4859925;29;20034;-61
2023/09/03 05:05:24;;;;;;;9.48;2.30;;;17.70;99.90;;;;;;4876844;29;20533;-62
2023/09/03 05:07:51;;;;;;;5.60;1.85;;;17.60;99.90;;;;;;4877414;29;20052;-61
2023/09/03 05:10:18;;;;;;;4.03;2.17;;;17.60;99.90;;;;;;4875320;29;20061;-62
2023/09/03 05:12:44;;;;;;;3.75;1.77;;;17.60;99.90;;;;;;4877276;29;20033;-62
2023/09/03 05:15:11;;;;;;;4.38;1.85;;;17.60;99.90;;;;;;4875388;29;20048;-60
2023/09/03 05:17:41;;;;;;;3.60;1.75;;;17.50;99.90;;;;;;4878125;29;20037;-60
2023/09/03 05:20:10;;;;;;;5.32;2.30;;;17.60;99.90;;;;;;4880329;29;20438;-59
2023/09/03 05:22:37;;;;;;;4.25;2.00;;;17.70;99.90;;;;;;4864677;29;20112;-59
2023/09/03 05:25:03;;;;;;;3.40;1.70;;;17.70;99.90;;;;;;4883664;29;20093;-66
2023/09/03 05:27:30;;;;;;;6.68;1.50;;;17.70;99.90;;;;;;4883247;29;20044;-66
2023/09/03 05:29:56;;;;;;;4.57;2.03;;;17.70;99.90;;;;;;4860526;29;20108;-66
2023/09/03 05:32:23;;;;;;;3.28;1.80;;;17.80;99.90;;;;;;4880640;29;20800;-66
2023/09/03 05:34:50;;;;;;;5.95;2.08;;;17.80;99.90;;;;;;4878773;29;20033;-66
2023/09/03 05:37:16;;;;;;;2.95;1.55;;;17.90;99.90;;;;;;4860331;29;20026;-66
2023/09/03 05:39:42;;;;;;;3.58;1.70;;;17.90;99.90;;;;;;4857500;29;20033;-66
2023/09/03 05:42:07;;;;;;;5.10;2.47;;;17.90;99.90;;;;;;4879981;29;20033;-65
2023/09/03 05:44:33;;;;;;;5.97;2.15;;;18.00;99.90;;;;;;4879364;29;20032;-67
2023/09/03 05:46:59;;;;;;;1.90;1.20;;;18.00;99.90;;;;;;4879738;29;20040;-66
2023/09/03 05:49:25;;;;;;;4.80;1.88;;;18.00;99.90;;;;;;4880670;29;20040;-66
2023/09/03 05:51:50;;;;;;;3.00;1.65;;;18.10;99.90;;;;;;4884812;29;20060;-66
2023/09/03 05:54:16;;;;;;;5.82;2.10;;;18.10;99.90;;;;;;4875892;29;20494;-66
2023/09/03 05:56:42;;;;;;;7.57;1.88;;;18.00;99.90;;;;;;4879047;29;20092;-67
2023/09/03 05:59:11;;;;;;;4.75;1.77;;;18.10;99.90;;;;;;4880399;29;20029;-66
2023/09/03 06:01:37;;;;;;;2.45;1.25;;;18.20;99.90;;;;;;4877167;29;20041;-66
2023/09/03 06:04:06;;;;;;;6.68;2.42;;;18.20;99.90;;;;;;4869594;29;20090;-65
2023/09/03 06:06:38;;;;;;;3.13;1.58;;;18.10;99.90;;;;;;4883416;29;20095;-66
2023/09/03 06:09:06;;;;;;;3.80;1.50;;;18.10;99.90;;;;;;4879076;29;20072;-66
2023/09/03 06:11:33;;;;;;;4.15;1.50;;;18.20;99.90;;;;;;4878900;29;20045;-66
2023/09/03 06:13:58;;;;;;;2.85;2.00;;;18.20;99.90;;;;;;4880098;29;20025;-66
2023/09/03 06:16:25;;;;;;;3.42;1.80;;;18.20;99.90;;;;;;4878260;29;20085;-66
2023/09/03 06:18:51;;;;;;;4.43;1.30;;;18.30;99.90;;;;;;4879431;29;20128;-66
2023/09/03 06:21:17;;;;;;;2.85;1.33;;;18.40;99.90;;;;;;4860032;29;20433;-66
2023/09/03 06:23:43;;;;;;;6.28;2.08;;;18.50;99.90;;;;;;4862795;29;20036;-67
2023/09/03 06:26:09;;;;;;;6.25;1.50;;;18.50;99.90;;;;;;4879977;29;20029;-66
2023/09/03 06:28:35;;;;;;;3.00;1.70;;;18.60;99.90;;;;;;4877447;29;20101;-66
2023/09/03 06:31:01;;;;;;;5.10;2.20;;;18.70;99.90;;;;;;4878584;29;20305;-66
2023/09/03 06:33:27;;;;;;;3.15;1.60;;;18.70;99.90;;;;;;4878812;29;20033;-66
2023/09/03 06:35:53;;;;;;;4.45;2.42;;;18.80;99.90;;;;;;4879956;29;20029;-66
2023/09/03 06:38:19;;;;;;;3.70;2.03;;;19.00;99.90;;;;;;4879158;29;20043;-66
2023/09/03 06:40:45;;;;;;;3.35;1.52;;;19.10;99.90;;;;;;4879649;29;20382;-65
2023/09/03 06:43:10;;;;;;;3.90;1.70;;;19.10;99.90;;;;;;4878961;29;20462;-65
2023/09/03 06:45:36;;;;;;;3.78;1.90;;;19.10;99.90;;;;;;4878934;29;20123;-64
2023/09/03 06:48:02;;;;;;;2.67;1.45;;;19.20;99.90;;;;;;4878759;29;20072;-66
2023/09/03 06:50:28;;;;;;;2.40;1.58;;;19.30;99.90;;;;;;4877864;29;20033;-65
2023/09/03 06:52:53;;;;;;;3.00;1.85;;;19.40;99.90;;;;;;4878576;29;20489;-65
2023/09/03 06:55:19;;;;;;;7.53;2.10;;;19.40;99.90;;;;;;4879606;29;20028;-75
2023/09/03 06:57:45;;;;;;;7.28;1.83;;;19.50;99.90;;;;;;4861854;29;20048;-77
2023/09/03 07:00:11;;;;;;;3.22;1.52;;;19.40;99.90;;;;;;4877730;29;20044;-74
2023/09/03 07:02:37;;;;;;;3.53;1.98;;;19.40;99.90;;;;;;4862408;29;20394;-73
2023/09/03 07:05:03;;;;;;;3.40;1.90;;;19.50;99.90;;;;;;4879476;29;20036;-72
2023/09/03 07:07:29;;;;;;;3.70;1.55;;;19.60;99.90;;;;;;4859198;29;20063;-72
2023/09/03 07:09:55;;;;;;;3.58;1.65;;;19.50;99.90;;;;;;4871964;29;20627;-72
2023/09/03 07:12:21;;;;;;;3.55;1.70;;;19.70;99.90;;;;;;4868743;29;20033;-72
2023/09/03 07:14:47;;;;;;;5.55;2.92;;;19.80;99.90;;;;;;4879260;29;20033;-73
2023/09/03 07:17:13;;;;;;;2.80;1.38;;;19.80;99.90;;;;;;4878280;29;20103;-72
2023/09/03 07:19:39;;;;;;;3.88;1.98;;;20.00;99.90;;;;;;4879037;29;20033;-73
2023/09/03 07:22:05;;;;;;;3.72;1.77;;;20.20;99.90;;;;;;4877801;29;20446;-70
2023/09/03 07:24:30;;;;;;;5.22;1.48;;;20.30;99.90;;;;;;4879258;29;20474;-71
2023/09/03 07:26:56;;;;;;;3.33;1.55;;;20.50;99.90;;;;;;4877950;29;20164;-70
2023/09/03 07:29:22;;;;;;;6.80;3.75;;;20.60;99.90;;;;;;4883094;29;20045;-73
2023/09/03 07:31:48;;;;;;;7.28;2.10;;;20.60;99.90;;;;;;4870443;29;20032;-72
2023/09/03 07:34:14;;;;;;;2.97;1.20;;;20.80;99.90;;;;;;4866475;29;20033;-73
2023/09/03 07:36:40;;;;;;;4.93;1.40;;;20.90;99.90;;;;;;4864488;29;20052;-72
2023/09/03 07:39:10;;;;;;;3.13;1.58;;;21.00;99.90;;;;;;4879699;29;20124;-72
2023/09/03 07:41:37;;;;;;;3.38;1.40;;;21.10;99.90;;;;;;4861080;29;20029;-71
2023/09/03 07:44:04;;;;;;;2.63;1.50;;;21.20;99.90;;;;;;4846145;29;20048;-72
2023/09/03 07:46:30;;;;;;;6.60;1.52;;;21.30;99.90;;;;;;4876595;29;20641;-72
2023/09/03 07:48:56;;;;;;;3.17;1.50;;;21.40;99.90;;;;;;4862248;29;20064;-72
2023/09/03 07:51:22;;;;;;;3.10;1.20;;;21.50;99.90;;;;;;4877202;29;20216;-72
2023/09/03 07:53:48;;;;;;;5.88;1.17;;;21.50;99.90;;;;;;4877652;29;20455;-72
2023/09/03 07:56:15;;;;;;;3.40;1.52;;;21.50;99.90;;;;;;4844383;29;20049;-73
2023/09/03 07:58:42;;;;;;;3.80;1.58;;;21.60;99.90;;;;;;4863967;29;20045;-73
2023/09/03 08:01:12;;;;;;;4.57;1.77;;;21.30;99.90;;;;;;4858188;29;20432;-73
2023/09/03 08:03:43;;;;;;;2.22;1.30;;;21.50;99.90;;;;;;4856159;29;20037;-73
2023/09/03 08:06:09;;;;;;;;;;;21.70;99.90;;;;;;4862280;29;20037;-72
2023/09/03 08:08:35;;;;;;;2.75;1.27;;;21.80;99.90;;;;;;4876085;29;19922;-73
2023/09/03 08:11:02;;;;;;;3.00;1.40;;;21.80;99.90;;;;;;4877678;29;20037;-72
2023/09/03 08:13:28;;;;;;;5.28;1.55;;;22.00;99.90;;;;;;4875482;29;20043;-72
2023/09/03 08:15:54;;;;;;;5.18;1.25;;;22.00;99.90;;;;;;4876434;29;20033;-73
2023/09/03 08:18:21;;;;;;;2.47;1.38;;;22.00;99.90;;;;;;4838825;29;20029;-73
2023/09/03 08:20:50;;;;;;;2.60;1.15;;;22.00;99.90;;;;;;4856136;29;20037;-72
2023/09/03 08:23:16;;;;;;;2.75;1.40;;;22.10;99.90;;;;;;4870034;29;20037;-72
2023/09/03 08:25:42;;;;;;;2.47;1.20;;;22.20;99.90;;;;;;4854427;29;20165;-72
2023/09/03 08:28:09;;;;;;;2.83;1.58;;;22.00;99.90;;;;;;4876966;29;20065;-72
2023/09/03 08:30:35;;;;;;;2.80;1.42;;;22.20;99.90;;;;;;4861038;29;20044;-72
2023/09/03 08:33:01;;;;;;;2.95;1.30;;;22.20;99.90;;;;;;4860520;29;20040;-72
2023/09/03 08:35:28;;;;;;;2.65;1.38;;;22.30;99.90;;;;;;4877450;29;20037;-72
2023/09/03 08:37:54;;;;;;;2.45;1.17;;;22.30;99.90;;;;;;4860059;29;20051;-76
2023/09/03 08:40:20;;;;;;;5.93;1.38;;;22.40;99.90;;;;;;4860934;29;20033;-74
2023/09/03 08:42:47;;;;;;;1.83;1.10;;;22.50;99.90;;;;;;4876566;29;20041;-75
2023/09/03 08:45:16;;;;;;;5.15;1.33;;;22.40;99.90;;;;;;4868720;29;20045;-76
2023/09/03 08:47:44;;;;;;;2.55;0.90;;;22.60;99.90;;;;;;4870377;29;20085;-76
2023/09/03 08:50:15;;;;;;;2.13;1.20;;;22.60;99.90;;;;;;4856127;29;20032;-75
2023/09/03 08:52:43;;;;;;;4.45;1.30;;;22.80;99.90;;;;;;4875726;29;20033;-75
2023/09/03 08:55:13;;;;;;;2.38;1.20;;;22.90;99.90;;;;;;4859937;29;20021;-75
2023/09/03 08:57:40;;;;;;;2.55;1.30;;;23.10;99.90;;;;;;4874845;29;20036;-76
2023/09/03 09:00:10;;;;;;;2.55;1.33;;;23.30;99.90;;;;;;4876436;29;20043;-74
2023/09/03 09:02:37;;;;;;;2.60;1.17;;;23.40;99.90;;;;;;4859932;29;20071;-75
2023/09/03 09:05:09;;;;;;;5.40;1.40;;;23.40;99.90;;;;;;4875492;29;20185;-75
2023/09/03 09:07:35;;;;;;;3.45;1.08;;;23.50;99.90;;;;;;4876830;29;20443;-76
2023/09/03 09:10:10;;;;;;;3.28;1.15;;;23.50;99.90;;;;;;4874644;29;20037;-75
2023/09/03 09:12:45;;;;;;;3.85;1.33;;;23.60;99.90;;;;;;4860071;29;20033;-75
2023/09/03 09:15:11;;;;;;;3.40;1.35;;;23.90;99.90;;;;;;4853225;29;20029;-76
2023/09/03 09:17:43;;;;;;;2.00;1.23;;;24.00;99.90;;;;;;4876933;29;20048;-76
2023/09/03 09:20:12;;;;;;;1.27;0.73;;;23.80;99.90;;;;;;4868404;29;20029;-75
2023/09/03 09:22:43;;;;;;;1.67;1.10;;;24.00;99.90;;;;;;4860077;29;20099;-75
2023/09/03 09:25:16;;;;;;;;;;;23.70;99.90;;;;;;4853674;29;20036;-76
2023/09/03 09:27:42;;;;;;;2.83;0.80;;;23.80;99.90;;;;;;4860746;29;19930;-75
2023/09/03 09:30:10;;;;;;;3.30;1.08;;;24.00;99.90;;;;;;4876984;29;20055;-76
2023/09/03 09:32:36;;;;;;;1.10;0.70;;;24.20;99.90;;;;;;4875335;29;20033;-75
2023/09/03 09:35:03;;;;;;;1.75;0.80;;;24.30;99.90;;;;;;4877084;29;20029;-75
2023/09/03 09:37:41;;;;;;;1.92;1.20;;;24.10;99.90;;;;;;4860044;29;20021;-75
2023/09/03 09:40:08;;;;;;;2.00;0.88;;;24.60;99.90;;;;;;4875494;29;20033;-75
2023/09/03 09:42:50;;;;;;;2.80;1.30;;;24.50;99.90;;;;;;4874854;29;20033;-74
2023/09/03 09:45:16;;;;;;;2.10;1.02;;;24.80;99.90;;;;;;4847508;29;20080;-76
2023/09/03 09:47:42;;;;;;;3.53;1.15;;;24.60;99.90;;;;;;4863067;29;20135;-75
2023/09/03 09:50:08;;;;;;;2.75;1.17;;;24.50;99.90;;;;;;4877352;29;20025;-75
2023/09/03 09:52:37;;;;;;;1.42;0.80;;;24.90;99.90;;;;;;4875506;29;20041;-75
2023/09/03 09:55:03;;;;;;;2.25;0.80;;;25.10;99.90;;;;;;4877112;29;20395;-75
2023/09/03 09:57:29;;;;;;;2.92;0.98;;;25.20;99.90;;;;;;4874846;29;20033;-75
2023/09/03 10:00:01;;;;;;;2.65;1.35;;;25.30;99.90;;;;;;4875629;29;20036;-76
2023/09/03 10:02:27;;;;;;;1.65;1.02;;;25.50;99.90;;;;;;4859581;29;20037;-75
2023/09/03 10:04:53;;;;;;;2.67;1.13;;;25.70;99.90;;;;;;4861069;29;20036;-76
2023/09/03 10:07:19;;;;;;;2.03;0.90;;;25.90;99.90;;;;;;4862645;29;20036;-77
2023/09/03 10:09:46;;;;;;;1.73;0.82;;;25.70;99.90;;;;;;4878561;29;20036;-74
2023/09/03 10:12:13;;;;;;;1.85;1.10;;;25.70;99.90;;;;;;4878013;29;20045;-75
2023/09/03 10:14:39;;;;;;;1.35;0.85;;;26.00;99.90;;;;;;4880097;29;20033;-75
2023/09/03 10:17:08;;;;;;;1.83;1.05;;;25.80;99.90;;;;;;4862555;29;20463;-76
2023/09/03 10:19:58;;;;;;;1.33;0.77;;;25.90;99.90;;;;;;4880057;29;20037;-76
2023/09/03 10:22:24;;;;;;;1.05;0.73;;;26.00;99.90;;;;;;4875298;29;20033;-76
2023/09/03 10:24:59;;;;;;;1.45;0.90;;;26.10;99.90;;;;;;4876340;29;20046;-77
2023/09/03 10:27:28;;;;;;;1.83;0.75;;;26.30;99.90;;;;;;4863033;29;20625;-76
2023/09/03 10:29:58;;;;;;;1.98;0.90;;;26.60;99.90;;;;;;4878468;29;20029;-76
2023/09/03 10:32:26;;;;;;;1.63;1.00;;;26.50;99.90;;;;;;4862240;29;20109;-76
2023/09/03 10:34:51;;;;;;;1.38;0.60;;;26.50;99.90;;;;;;4848031;29;20045;-76
2023/09/03 10:37:18;;;;;;;2.10;0.75;;;26.70;99.90;;;;;;4879146;29;20044;-76
2023/09/03 10:39:45;;;;;;;1.20;0.60;;;26.70;99.90;;;;;;4863124;29;20418;-76
2023/09/03 10:42:27;;;;;;;4.22;0.80;;;26.80;99.90;;;;;;4854714;29;20075;-76
2023/09/03 10:44:55;;;;;;;1.20;0.70;;;26.70;99.90;;;;;;4879437;29;20029;-76
2023/09/03 10:47:21;;;;;;;2.78;1.10;;;26.50;99.90;;;;;;4861898;29;20370;-76
2023/09/03 10:49:51;;;;;;;1.25;0.68;;;26.40;99.90;;;;;;4877828;29;20041;-76
2023/09/03 10:52:32;;;;;;;2.15;1.30;;;26.60;99.90;;;;;;4878628;29;20041;-76
2023/09/03 10:55:19;;;;;;;1.75;0.95;;;26.60;99.90;;;;;;4879595;29;20032;-76
2023/09/03 10:58:21;;;;;;;2.45;1.30;;;27.10;99.90;;;;;;4863157;29;20045;-76
2023/09/03 11:01:19;;;;;;;2.92;1.23;;;27.40;99.90;;;;;;4877968;29;20056;-75
2023/09/03 11:03:50;;;;;;;1.70;0.75;;;27.50;99.90;;;;;;4876059;29;20037;-75
2023/09/03 11:06:19;;;;;;;1.05;0.70;;;27.70;99.90;;;;;;4870487;29;20037;-75
2023/09/03 11:08:58;;;;;;;2.22;0.90;;;27.90;99.90;;;;;;4859316;29;20033;-76
2023/09/03 11:11:33;;;;;;;2.83;1.10;;;26.90;99.90;;;;;;4863495;29;20040;-76
2023/09/03 11:13:59;;;;;;;3.70;1.88;;;27.40;99.90;;;;;;4863283;29;20465;-75
2023/09/03 11:16:34;;;;;;;2.17;1.10;;;27.30;99.90;;;;;;4876587;29;20064;-76
2023/09/03 11:19:04;;;;;;;2.63;1.27;;;27.80;99.90;;;;;;4862426;29;20132;-76
2023/09/03 11:21:30;;;;;;;4.07;1.30;;;27.80;99.90;;;;;;4860393;29;20068;-76
2023/09/03 11:24:14;;;;;;;2.25;1.30;;;28.40;99.90;;;;;;4860434;29;20038;-75
2023/09/03 11:26:41;;;;;;;2.50;1.20;;;28.90;99.70;;;;;;4877998;29;20032;-75
2023/09/03 11:29:23;;;;;;;1.92;0.88;;;28.10;98.80;;;;;;4878793;29;20037;-75
2023/09/03 11:31:49;;;;;;;2.30;1.20;;;28.70;99.40;;;;;;4860843;29;20025;-76
2023/09/03 11:34:22;;;;;;;2.72;1.60;;;28.50;99.30;;;;;;4878834;29;20546;-76
2023/09/03 11:36:49;;;;;;;1.95;1.27;;;28.10;99.70;;;;;;4873364;29;20035;-75
2023/09/03 11:39:16;;;;;;;1.50;0.88;;;28.40;98.30;;;;;;4874548;29;20116;-75
2023/09/03 11:41:44;;;;;;;1.25;0.88;;;28.70;97.10;;;;;;4873955;29;20096;-76
2023/09/03 11:44:19;;;;;;;3.22;1.05;;;28.20;98.30;;;;;;4861766;29;20104;-75
2023/09/03 11:47:03;;;;;;;2.88;1.20;;;28.80;97.20;;;;;;4868820;29;20670;-76
2023/09/03 11:49:29;;;;;;;3.05;1.10;;;28.40;97.70;;;;;;4871586;29;20553;-76
2023/09/03 11:52:12;;;;;;;1.52;1.00;;;28.50;96.80;;;;;;4860986;29;20045;-75
2023/09/03 11:54:38;;;;;;;1.50;0.88;;;29.00;96.40;;;;;;4864427;29;20029;-75
2023/09/03 11:57:06;;;;;;;2.08;0.90;;;28.90;95.80;;;;;;4880753;29;20050;-75
2023/09/03 11:59:32;;;;;;;1.63;0.77;;;29.00;95.50;;;;;;4876770;29;20075;-75
2023/09/03 12:01:59;;;;;;;2.53;0.90;;;29.40;94.70;;;;;;4861132;29;20068;-76
2023/09/03 12:04:25;;;;;;;2.42;1.13;;;29.60;93.60;;;;;;4877255;29;20033;-76
2023/09/03 12:06:50;;;;;;;2.42;1.20;;;30.00;93.90;;;;;;4873403;29;20099;-75
2023/09/03 12:09:23;;;;;;;1.85;1.10;;;30.30;91.80;;;;;;4861522;29;20037;-76
2023/09/03 12:11:49;;;;;;;2.35;1.33;;;30.30;92.50;;;;;;4876501;29;20120;-76
2023/09/03 12:14:31;;;;;;;3.08;1.70;;;30.00;93.70;;;;;;4858435;29;20115;-75
2023/09/03 12:16:57;;;;;;;3.33;1.35;;;29.20;95.60;;;;;;4857032;29;20037;-71
2023/09/03 12:19:23;;;;;;;3.13;1.27;;;28.70;95.90;;;;;;4861170;29;20176;-71
2023/09/03 12:21:52;;;;;;;2.85;1.38;;;29.00;96.10;;;;;;4873748;29;20045;-71
2023/09/03 12:24:27;;;;;;;2.33;1.27;;;29.70;94.40;;;;;;4862537;29;20116;-70
2023/09/03 12:27:04;;;;;;;2.17;1.10;;;29.60;93.30;;;;;;4876613;29;20037;-71
2023/09/03 12:29:38;;;;;;;1.27;0.98;;;30.20;91.20;;;;;;4862884;29;20041;-71
2023/09/03 12:32:06;;;;;;;2.42;1.27;;;30.40;91.00;;;;;;4858282;29;20029;-72
2023/09/03 12:34:37;;;;;;;1.58;0.93;;;30.70;91.30;;;;;;4861328;29;20037;-71
2023/09/03 12:37:03;;;;;;;1.70;0.95;;;30.80;90.70;;;;;;4845298;29;20085;-71
2023/09/03 12:39:30;;;;;;;2.47;1.17;;;30.90;89.90;;;;;;4872176;29;20033;-72
2023/09/03 12:41:57;;;;;;;1.45;0.85;;;31.40;86.70;;;;;;4870096;29;20116;-71
2023/09/03 12:44:24;;;;;;;1.58;1.02;;;31.90;83.70;;;;;;4877652;29;20056;-71
2023/09/03 12:46:49;;;;;;;2.47;1.40;;;32.20;81.30;;;;;;4876200;29;20045;-71
2023/09/03 12:49:15;;;;;;;2.08;0.90;;;31.50;80.00;;;;;;4876303;29;20824;-70
2023/09/03 12:51:41;;;;;;;1.92;1.00;;;32.10;79.00;;;;;;4875805;29;20045;-71
2023/09/03 12:54:08;;;;;;;2.05;1.00;;;31.10;80.90;;;;;;4876597;29;20502;-72
2023/09/03 12:56:35;;;;;;;1.52;0.90;;;33.10;79.10;;;;;;4860746;29;20079;-71